createdAt,value
2018-10-21T00:00:28.159Z,16.70
2018-10-21T00:03:00.838Z,14.97
2018-10-21T00:05:33.908Z,17.97
2018-10-21T00:08:06.716Z,13.80
2018-10-21T00:10:39.971Z,7.30
2018-10-21T00:13:12.588Z,8.27
2018-10-21T00:15:45.545Z,8.00
2018-10-21T00:18:18.252Z,10.47
2018-10-21T00:20:51.127Z,10.07
2018-10-21T00:23:23.922Z,10.00
2018-10-21T00:25:56.727Z,10.57
2018-10-21T00:28:29.300Z,11.70
2018-10-21T00:31:02.340Z,12.40
2018-10-21T00:33:34.960Z,10.47
2018-10-21T00:36:07.904Z,9.30
2018-10-21T00:38:40.626Z,9.30
2018-10-21T00:41:13.527Z,10.40
2018-10-21T00:43:46.266Z,9.57
2018-10-21T00:46:19.029Z,10.00
2018-10-21T00:48:51.614Z,11.63
2018-10-21T00:51:24.425Z,11.00
2018-10-21T00:53:56.966Z,8.10
2018-10-21T00:56:29.923Z,7.30
2018-10-21T00:59:02.477Z,7.17
2018-10-21T01:01:35.229Z,6.57
2018-10-21T01:04:08.601Z,5.80
2018-10-21T01:06:41.265Z,5.07
2018-10-21T01:09:15.079Z,5.17
2018-10-21T01:11:48.197Z,6.30
2018-10-21T01:14:20.852Z,5.20
2018-10-21T01:16:53.544Z,4.40
2018-10-21T01:19:26.490Z,5.03
2018-10-21T01:21:59.788Z,5.33
2018-10-21T01:24:32.691Z,5.40
2018-10-21T01:27:05.529Z,6.47
2018-10-21T01:29:38.346Z,6.93
2018-10-21T01:32:12.297Z,5.50
2018-10-21T01:34:45.354Z,7.63
2018-10-21T01:37:18.440Z,7.80
2018-10-21T01:40:55.187Z,18.37
2018-10-21T01:43:29.342Z,21.20
2018-10-21T01:46:02.964Z,19.37
2018-10-21T01:48:36.120Z,20.20
2018-10-21T01:51:08.989Z,24.33
2018-10-21T01:53:42.046Z,24.40
2018-10-21T01:56:14.664Z,23.90
2018-10-21T01:58:47.602Z,22.10
2018-10-21T02:01:20.464Z,18.17
2018-10-21T02:03:53.136Z,18.80
2018-10-21T02:06:25.689Z,26.00
2018-10-21T02:08:58.454Z,21.00
2018-10-21T02:11:31.040Z,17.63
2018-10-21T02:14:03.883Z,15.40
2018-10-21T02:16:36.839Z,15.30
2018-10-21T02:19:09.655Z,12.43
2018-10-21T02:21:42.409Z,11.63
2018-10-21T02:24:15.127Z,12.87
2018-10-21T02:26:47.787Z,14.20
2018-10-21T02:29:20.664Z,15.37
2018-10-21T02:31:53.687Z,14.17
2018-10-21T02:34:26.708Z,21.13
2018-10-21T02:36:59.371Z,118.67
2018-10-21T02:39:32.117Z,152.90
2018-10-21T02:42:04.900Z,138.33
2018-10-21T02:44:37.836Z,116.93
2018-10-21T02:47:10.389Z,112.43
2018-10-21T02:49:43.261Z,68.57
2018-10-21T02:52:16.062Z,55.00
2018-10-21T02:54:49.388Z,37.27
2018-10-21T02:57:22.462Z,20.43
2018-10-21T02:59:55.627Z,14.83
2018-10-21T03:02:28.435Z,13.57
2018-10-21T03:05:01.030Z,13.97
2018-10-21T03:07:33.647Z,11.93
2018-10-21T03:10:06.397Z,13.50
2018-10-21T03:12:39.271Z,16.17
2018-10-21T03:15:12.417Z,13.87
2018-10-21T03:17:45.107Z,11.80
2018-10-21T03:20:17.973Z,13.30
2018-10-21T03:22:50.747Z,11.63
2018-10-21T03:25:23.566Z,12.17
2018-10-21T03:27:56.448Z,13.10
2018-10-21T03:30:29.242Z,13.07
2018-10-21T03:33:02.072Z,16.80
2018-10-21T03:35:35.100Z,13.27
2018-10-21T03:38:07.964Z,11.47
2018-10-21T03:40:40.736Z,9.43
2018-10-21T03:43:13.307Z,10.90
2018-10-21T03:45:46.098Z,10.67
2018-10-21T03:48:18.828Z,10.80
2018-10-21T03:50:51.915Z,8.57
2018-10-21T03:53:24.532Z,11.10
2018-10-21T03:55:57.520Z,9.20
2018-10-21T03:58:30.479Z,8.63
2018-10-21T04:01:03.472Z,7.13
2018-10-21T04:03:37.184Z,7.60
2018-10-21T04:06:11.212Z,6.77
2018-10-21T04:08:44.971Z,6.87
2018-10-21T04:11:18.978Z,7.97
2018-10-21T04:13:52.802Z,13.30
2018-10-21T04:16:26.570Z,8.70
2018-10-21T04:19:00.258Z,7.30
2018-10-21T04:21:34.384Z,8.67
2018-10-21T04:24:08.097Z,7.00
2018-10-21T04:26:42.064Z,7.37
2018-10-21T04:29:15.816Z,7.87
2018-10-21T04:31:49.592Z,6.50
2018-10-21T04:34:23.231Z,7.90
2018-10-21T04:37:01.823Z,6.27
2018-10-21T04:39:44.260Z,5.67
2018-10-21T04:42:17.894Z,6.00
2018-10-21T04:44:51.702Z,5.23
2018-10-21T04:47:25.274Z,5.90
2018-10-21T04:49:58.904Z,6.33
2018-10-21T04:52:33.652Z,6.37
2018-10-21T04:55:11.364Z,6.80
2018-10-21T04:57:46.327Z,6.93
2018-10-21T05:00:22.414Z,6.23
2018-10-21T05:02:56.259Z,6.10
2018-10-21T05:05:29.918Z,7.97
2018-10-21T05:08:03.968Z,6.60
2018-10-21T05:10:40.130Z,6.70
2018-10-21T05:13:15.429Z,7.97
2018-10-21T05:15:49.023Z,8.27
2018-10-21T05:18:22.841Z,8.97
2018-10-21T05:20:56.611Z,11.37
2018-10-21T05:23:30.485Z,7.97
2018-10-21T05:26:04.078Z,8.80
2018-10-21T05:28:37.822Z,6.67
2018-10-21T05:31:11.533Z,6.73
2018-10-21T05:33:45.338Z,6.27
2018-10-21T05:36:19.163Z,5.87
2018-10-21T05:38:53.131Z,5.77
2018-10-21T05:41:26.896Z,5.50
2018-10-21T05:44:00.757Z,4.90
2018-10-21T05:46:45.481Z,4.60
2018-10-21T05:49:19.679Z,4.80
2018-10-21T05:51:53.950Z,3.77
2018-10-21T05:54:27.867Z,4.13
2018-10-21T05:57:01.744Z,4.10
2018-10-21T05:59:35.698Z,3.83
2018-10-21T06:02:09.744Z,3.37
2018-10-21T06:04:43.585Z,4.80
2018-10-21T06:07:17.372Z,5.07
2018-10-21T06:09:51.203Z,4.30
2018-10-21T06:12:25.011Z,3.83
2018-10-21T06:14:58.943Z,3.57
2018-10-21T06:17:33.632Z,4.27
2018-10-21T06:20:14.854Z,4.50
2018-10-21T06:22:48.937Z,4.70
2018-10-21T06:25:22.877Z,4.57
2018-10-21T06:27:56.696Z,4.00
2018-10-21T06:30:30.908Z,3.60
2018-10-21T06:33:04.930Z,3.33
2018-10-21T06:35:38.677Z,2.83
2018-10-21T06:38:12.614Z,3.67
2018-10-21T06:40:46.656Z,3.80
2018-10-21T06:43:20.482Z,3.93
2018-10-21T06:45:54.507Z,4.87
2018-10-21T06:48:28.274Z,5.33
2018-10-21T06:51:02.379Z,4.60
2018-10-21T06:53:36.249Z,4.30
2018-10-21T06:56:10.131Z,4.87
2018-10-21T06:58:43.876Z,5.30
2018-10-21T07:01:17.942Z,6.63
2018-10-21T07:03:51.840Z,7.83
2018-10-21T07:06:29.487Z,11.50
2018-10-21T07:09:04.629Z,9.07
2018-10-21T07:11:38.450Z,8.80
2018-10-21T07:14:12.045Z,9.27
2018-10-21T07:16:46.054Z,8.00
2018-10-21T07:19:19.760Z,8.80
2018-10-21T07:21:53.746Z,8.80
2018-10-21T07:24:27.422Z,10.13
2018-10-21T07:27:01.406Z,12.70
2018-10-21T07:29:35.014Z,14.43
2018-10-21T07:32:09.237Z,14.60
2018-10-21T07:34:43.155Z,12.87
2018-10-21T07:37:16.782Z,14.97
2018-10-21T07:39:49.381Z,14.60
2018-10-21T07:42:22.205Z,15.03
2018-10-21T07:44:54.887Z,15.57
2018-10-21T07:47:27.780Z,17.17
2018-10-21T07:50:00.486Z,18.80
2018-10-21T07:52:33.590Z,17.67
2018-10-21T07:55:06.472Z,16.67
2018-10-21T07:57:39.184Z,20.00
2018-10-21T08:00:12.094Z,20.53
2018-10-21T08:02:45.068Z,20.10
2018-10-21T08:07:29.155Z,19.03
2018-10-21T08:10:02.046Z,18.73
2018-10-21T08:12:34.714Z,19.90
2018-10-21T08:15:08.080Z,20.23
2018-10-21T08:17:41.022Z,19.90
2018-10-21T08:20:13.836Z,17.57
2018-10-21T08:22:46.561Z,16.20
2018-10-21T08:25:19.436Z,16.77
2018-10-21T08:27:52.223Z,16.17
2018-10-21T08:30:25.127Z,14.43
2018-10-21T08:32:58.186Z,13.60
2018-10-21T08:35:31.116Z,12.90
2018-10-21T08:38:04.181Z,12.93
2018-10-21T08:40:37.007Z,11.93
2018-10-21T08:43:09.975Z,11.83
2018-10-21T08:45:42.712Z,12.23
2018-10-21T08:48:15.529Z,12.47
2018-10-21T08:50:48.247Z,11.60
2018-10-21T08:53:21.023Z,10.73
2018-10-21T08:55:54.031Z,9.53
2018-10-21T08:58:27.128Z,9.30
2018-10-21T09:01:00.077Z,9.17
2018-10-21T09:03:32.932Z,9.87
2018-10-21T09:06:05.792Z,9.93
2018-10-21T09:08:38.493Z,8.87
2018-10-21T09:11:11.504Z,10.10
2018-10-21T09:13:44.292Z,9.03
2018-10-21T09:16:17.227Z,10.13
2018-10-21T09:18:50.059Z,9.57
2018-10-21T09:21:22.837Z,9.33
2018-10-21T09:23:55.540Z,8.87
2018-10-21T09:26:28.282Z,9.57
2018-10-21T09:29:00.943Z,8.93
2018-10-21T09:31:33.749Z,9.60
2018-10-21T09:34:06.553Z,10.50
2018-10-21T09:36:39.362Z,15.17
2018-10-21T09:39:15.584Z,18.00
2018-10-21T09:41:48.419Z,23.10
2018-10-21T09:44:21.335Z,23.00
2018-10-21T09:46:54.373Z,23.53
2018-10-21T09:49:27.222Z,21.80
2018-10-21T09:52:00.343Z,20.70
2018-10-21T09:54:33.269Z,17.43
2018-10-21T09:57:05.864Z,18.13
2018-10-21T09:59:38.504Z,17.67
2018-10-21T10:02:15.532Z,15.10
2018-10-21T10:04:48.416Z,13.10
2018-10-21T10:07:21.545Z,12.30
2018-10-21T10:09:54.318Z,13.73
2018-10-21T10:12:27.308Z,13.37
2018-10-21T10:15:00.217Z,12.10
2018-10-21T10:17:33.010Z,9.97
2018-10-21T10:20:05.765Z,9.40
2018-10-21T10:22:38.799Z,9.10
2018-10-21T10:25:12.473Z,8.97
2018-10-21T10:27:45.648Z,7.90
2018-10-21T10:30:18.611Z,7.93
2018-10-21T10:32:51.607Z,9.43
2018-10-21T10:35:24.257Z,9.63
2018-10-21T10:37:57.060Z,9.27
2018-10-21T10:40:29.603Z,8.63
2018-10-21T10:43:02.372Z,10.27
2018-10-21T10:45:35.119Z,10.23
2018-10-21T10:48:07.784Z,10.83
2018-10-21T10:50:40.328Z,10.90
2018-10-21T10:53:13.480Z,10.77
2018-10-21T10:55:48.521Z,9.67
2018-10-21T10:58:21.540Z,11.20
2018-10-21T11:00:54.306Z,12.23
2018-10-21T11:03:27.338Z,12.00
2018-10-21T11:06:00.227Z,11.33
2018-10-21T11:08:32.887Z,11.53
2018-10-21T11:11:05.463Z,13.03
2018-10-21T11:13:39.476Z,18.10
2018-10-21T11:16:12.162Z,16.27
2018-10-21T11:18:45.363Z,16.53
2018-10-21T11:21:18.093Z,18.67
2018-10-21T11:23:50.973Z,18.57
2018-10-21T11:26:24.171Z,22.23
2018-10-21T11:28:57.126Z,22.50
2018-10-21T11:31:29.823Z,21.20
2018-10-21T11:34:02.656Z,19.03
2018-10-21T11:36:35.376Z,16.53
2018-10-21T11:39:09.247Z,15.77
2018-10-21T11:41:42.100Z,16.00
2018-10-21T11:44:14.979Z,14.37
2018-10-21T11:46:47.615Z,12.73
2018-10-21T11:49:20.584Z,12.47
2018-10-21T11:51:53.280Z,10.87
2018-10-21T11:54:26.111Z,10.90
2018-10-21T11:56:59.196Z,9.63
2018-10-21T11:59:31.732Z,8.83
2018-10-21T12:02:04.582Z,9.00
2018-10-21T12:04:37.463Z,8.83
2018-10-21T12:07:10.248Z,8.73
2018-10-21T12:09:43.285Z,9.20
2018-10-21T12:12:16.195Z,9.43
2018-10-21T12:14:49.121Z,10.13
2018-10-21T12:17:21.840Z,10.07
2018-10-21T12:19:54.791Z,10.00
2018-10-21T12:22:27.717Z,8.97
2018-10-21T12:25:00.512Z,10.07
2018-10-21T12:27:33.617Z,10.70
2018-10-21T12:30:06.632Z,10.53
2018-10-21T12:32:39.328Z,12.50
2018-10-21T12:35:14.480Z,11.07
2018-10-21T12:37:47.011Z,12.37
2018-10-21T12:40:20.193Z,12.17
2018-10-21T12:42:52.925Z,14.43
2018-10-21T12:45:25.621Z,13.20
2018-10-21T12:47:58.461Z,15.17
2018-10-21T12:50:31.360Z,15.83
2018-10-21T12:53:04.294Z,14.40
2018-10-21T12:55:41.513Z,15.53
2018-10-21T12:58:14.229Z,14.77
2018-10-21T13:00:47.126Z,12.47
2018-10-21T13:03:20.031Z,12.33
2018-10-21T13:05:53.055Z,12.20
2018-10-21T13:08:25.912Z,13.07
2018-10-21T13:10:58.993Z,13.10
2018-10-21T13:13:31.273Z,12.47
2018-10-21T13:16:03.608Z,13.43
2018-10-21T13:18:35.857Z,12.33
2018-10-21T13:21:08.191Z,12.53
2018-10-21T13:23:40.372Z,13.70
2018-10-21T13:26:12.687Z,14.13
2018-10-21T13:28:44.945Z,12.07
2018-10-21T13:31:17.925Z,11.30
2018-10-21T13:33:50.919Z,12.17
2018-10-21T13:36:23.851Z,10.30
2018-10-21T13:38:56.758Z,11.73
2018-10-21T13:41:29.567Z,11.87
2018-10-21T13:44:01.761Z,10.70
2018-10-21T13:46:34.031Z,9.73
2018-10-21T13:49:06.347Z,8.70
2018-10-21T13:51:38.940Z,8.63
2018-10-21T13:54:11.203Z,8.90
2018-10-21T13:56:43.540Z,9.50
2018-10-21T13:59:15.756Z,9.80
2018-10-21T14:01:48.135Z,9.30
2018-10-21T14:04:20.298Z,7.63
2018-10-21T14:06:53.288Z,8.00
2018-10-21T14:09:26.168Z,9.57
2018-10-21T14:11:59.084Z,7.40
2018-10-21T14:14:31.644Z,7.10
2018-10-21T14:17:04.409Z,6.60
2018-10-21T14:19:36.586Z,5.93
2018-10-21T14:22:09.472Z,6.20
2018-10-21T14:24:43.171Z,6.00
2018-10-21T14:27:16.243Z,6.80
2018-10-21T14:29:48.945Z,7.33
2018-10-21T14:32:21.900Z,7.27
2018-10-21T14:34:54.510Z,6.97
2018-10-21T14:37:27.549Z,7.10
2018-10-21T14:40:00.429Z,6.73
2018-10-21T14:42:33.071Z,6.60
2018-10-21T14:45:05.696Z,6.67
2018-10-21T14:47:38.394Z,5.93
2018-10-21T14:50:12.180Z,5.47
2018-10-21T14:52:45.084Z,5.62
2018-10-21T14:55:17.879Z,5.40
2018-10-21T14:57:52.310Z,5.30
2018-10-21T15:00:25.337Z,5.80
2018-10-21T15:02:58.359Z,6.00
2018-10-21T15:05:31.191Z,5.95
2018-10-21T15:08:04.239Z,5.87
2018-10-21T15:10:37.171Z,6.25
2018-10-21T15:13:10.138Z,5.58
2018-10-21T15:15:42.714Z,6.30
2018-10-21T15:18:15.808Z,6.20
2018-10-21T15:20:48.647Z,5.40
2018-10-21T15:23:21.155Z,5.20
2018-10-21T15:25:53.901Z,5.00
2018-10-21T15:28:27.096Z,4.93
2018-10-21T15:30:59.663Z,5.20
2018-10-21T15:33:32.808Z,6.10
2018-10-21T15:36:05.523Z,6.57
2018-10-21T15:38:38.160Z,5.23
2018-10-21T15:41:11.148Z,5.00
2018-10-21T15:43:44.144Z,3.80
2018-10-21T15:46:16.928Z,4.13
2018-10-21T15:48:50.080Z,4.30
2018-10-21T15:51:22.734Z,4.13
2018-10-21T15:53:55.545Z,4.97
2018-10-21T15:56:28.071Z,4.50
2018-10-21T15:59:00.940Z,4.20
2018-10-21T16:01:33.904Z,3.77
2018-10-21T16:04:06.296Z,3.27
2018-10-21T16:06:38.548Z,3.83
2018-10-21T16:09:14.107Z,3.50
2018-10-21T16:11:46.977Z,4.40
2018-10-21T16:14:19.713Z,4.13
2018-10-21T16:16:52.844Z,3.37
2018-10-21T16:19:25.427Z,2.90
2018-10-21T16:21:58.304Z,3.33
2018-10-21T16:24:31.123Z,3.97
2018-10-21T16:27:03.909Z,3.40
2018-10-21T16:29:36.696Z,3.93
2018-10-21T16:32:09.261Z,4.17
2018-10-21T16:34:41.833Z,3.97
2018-10-21T16:37:14.625Z,3.60
2018-10-21T16:39:47.364Z,3.60
2018-10-21T16:42:20.112Z,3.50
2018-10-21T16:44:53.097Z,3.23
2018-10-21T16:47:25.627Z,4.03
2018-10-21T16:49:58.427Z,5.93
2018-10-21T16:52:30.984Z,4.07
2018-10-21T16:55:03.893Z,4.70
2018-10-21T16:57:36.914Z,3.80
2018-10-21T17:00:11.953Z,4.73
2018-10-21T17:02:45.018Z,4.30
2018-10-21T17:05:17.952Z,5.63
2018-10-21T17:07:50.889Z,4.43
2018-10-21T17:10:24.178Z,3.97
2018-10-21T17:12:56.763Z,4.10
2018-10-21T17:15:29.967Z,4.20
2018-10-21T17:18:02.677Z,4.63
2018-10-21T17:20:35.536Z,4.00
2018-10-21T17:23:08.599Z,4.30
2018-10-21T17:25:41.523Z,4.67
2018-10-21T17:28:14.686Z,4.90
2018-10-21T17:30:47.369Z,4.67
2018-10-21T17:33:19.989Z,5.27
2018-10-21T17:35:52.945Z,7.60
2018-10-21T17:38:25.642Z,4.87
2018-10-21T17:40:58.391Z,4.70
2018-10-21T17:43:30.995Z,4.20
2018-10-21T17:46:04.077Z,4.07
2018-10-21T17:48:36.968Z,4.40
2018-10-21T17:51:09.839Z,6.27
2018-10-21T17:53:42.019Z,7.27
2018-10-21T17:56:14.284Z,5.13
2018-10-21T17:58:46.453Z,4.80
2018-10-21T18:01:18.708Z,8.17
2018-10-21T18:03:50.913Z,4.83
2018-10-21T18:06:23.190Z,3.00
2018-10-21T18:08:55.944Z,5.30
2018-10-21T18:11:28.699Z,5.70
2018-10-21T18:14:01.502Z,4.43
2018-10-21T18:16:34.824Z,5.37
2018-10-21T18:19:08.423Z,5.70
2018-10-21T18:21:41.213Z,4.00
2018-10-21T18:24:14.091Z,4.03
2018-10-21T18:26:46.725Z,3.13
2018-10-21T18:29:19.476Z,5.53
2018-10-21T18:31:52.428Z,3.70
2018-10-21T18:34:25.569Z,2.80
2018-10-21T18:36:58.394Z,2.83
2018-10-21T18:39:30.951Z,2.77
2018-10-21T18:42:03.734Z,3.77
2018-10-21T18:44:36.311Z,2.90
2018-10-21T18:47:09.079Z,2.50
2018-10-21T18:49:42.171Z,3.50
2018-10-21T18:52:14.954Z,3.00
2018-10-21T18:54:47.554Z,3.70
2018-10-21T18:57:20.853Z,2.90
2018-10-21T18:59:53.576Z,4.17
2018-10-21T19:02:26.288Z,3.40
2018-10-21T19:04:59.360Z,2.40
2018-10-21T19:07:32.428Z,3.53
2018-10-21T19:10:05.507Z,3.30
2018-10-21T19:12:38.424Z,3.93
2018-10-21T19:15:12.327Z,4.23
2018-10-21T19:17:45.234Z,2.77
2018-10-21T19:20:19.535Z,3.87
2018-10-21T19:22:52.363Z,4.90
2018-10-21T19:25:25.073Z,3.63
2018-10-21T19:27:57.964Z,7.53
2018-10-21T19:30:30.884Z,6.33
2018-10-21T19:33:03.952Z,3.87
2018-10-21T19:35:36.849Z,4.00
2018-10-21T19:38:09.744Z,4.07
2018-10-21T19:40:42.667Z,4.00
2018-10-21T19:43:15.278Z,3.53
2018-10-21T19:45:48.127Z,3.33
2018-10-21T19:48:21.235Z,2.80
2018-10-21T19:50:54.064Z,3.57
2018-10-21T19:53:26.644Z,3.57
2018-10-21T19:55:59.277Z,3.60
2018-10-21T19:58:32.326Z,3.23
2018-10-21T20:01:05.150Z,2.80
2018-10-21T20:03:38.321Z,2.00
2018-10-21T20:06:10.925Z,2.30
2018-10-21T20:08:43.713Z,2.80
2018-10-21T20:11:16.415Z,3.37
2018-10-21T20:13:49.151Z,2.62
2018-10-21T20:16:22.479Z,3.15
2018-10-21T20:18:55.674Z,4.33
2018-10-21T20:21:28.396Z,4.45
2018-10-21T20:24:01.312Z,2.87
2018-10-21T20:26:33.909Z,3.52
2018-10-21T20:29:06.925Z,3.10
2018-10-21T20:31:39.598Z,2.65
2018-10-21T20:34:12.497Z,5.90
2018-10-21T20:36:45.329Z,3.60
2018-10-21T20:39:18.199Z,2.83
2018-10-21T20:41:51.044Z,3.20
2018-10-21T20:44:24.124Z,3.35
2018-10-21T20:46:56.860Z,3.33
2018-10-21T20:49:29.881Z,3.40
2018-10-21T20:52:03.055Z,3.73
2018-10-21T20:54:40.307Z,3.53
2018-10-21T20:57:13.562Z,3.90
2018-10-21T20:59:47.498Z,4.40
2018-10-21T21:02:20.213Z,3.90
2018-10-21T21:04:52.847Z,4.33
2018-10-21T21:07:25.421Z,4.13
2018-10-21T21:09:58.358Z,4.70
2018-10-21T21:12:31.252Z,3.90
2018-10-21T21:15:04.134Z,3.83
2018-10-21T21:17:36.919Z,6.20
2018-10-21T21:20:10.481Z,3.70
2018-10-21T21:22:43.047Z,4.20
2018-10-21T21:25:15.930Z,3.93
2018-10-21T21:27:48.627Z,4.37
2018-10-21T21:30:21.480Z,4.40
2018-10-21T21:32:54.444Z,3.80
2018-10-21T21:35:27.100Z,3.80
2018-10-21T21:37:59.663Z,4.47
2018-10-21T21:40:32.613Z,3.93
2018-10-21T21:43:05.464Z,5.13
2018-10-21T21:45:38.346Z,4.73
2018-10-21T21:48:11.185Z,4.50
2018-10-21T21:50:44.083Z,8.23
2018-10-21T21:53:16.780Z,5.80
2018-10-21T21:55:49.828Z,6.07
2018-10-21T21:58:22.878Z,4.33
2018-10-21T22:00:55.968Z,5.47
2018-10-21T22:03:28.946Z,5.07
2018-10-21T22:06:01.945Z,4.63
2018-10-21T22:08:34.549Z,4.77
2018-10-21T22:11:07.696Z,4.20
2018-10-21T22:13:40.540Z,3.97
2018-10-21T22:16:13.973Z,3.47
2018-10-21T22:18:46.804Z,3.93
2018-10-21T22:21:19.920Z,3.80
2018-10-21T22:23:52.472Z,4.67
2018-10-21T22:26:25.207Z,4.43
2018-10-21T22:28:57.851Z,3.20
2018-10-21T22:31:30.791Z,3.03
2018-10-21T22:34:03.720Z,4.00
2018-10-21T22:36:36.777Z,4.60
2018-10-21T22:39:10.449Z,3.43
2018-10-21T22:41:43.282Z,3.50
2018-10-21T22:44:16.247Z,4.90
2018-10-21T22:46:49.279Z,4.13
2018-10-21T22:49:22.309Z,3.73
2018-10-21T22:51:56.519Z,4.57
2018-10-21T22:54:29.215Z,4.83
2018-10-21T22:57:02.560Z,4.10
2018-10-21T22:59:35.207Z,2.90
2018-10-21T23:02:08.251Z,3.23
2018-10-21T23:04:40.869Z,3.10
2018-10-21T23:07:13.996Z,3.23
2018-10-21T23:09:46.705Z,3.37
2018-10-21T23:12:19.800Z,3.80
2018-10-21T23:14:52.631Z,3.40
2018-10-21T23:17:26.432Z,4.93
2018-10-21T23:19:59.360Z,3.37
2018-10-21T23:22:32.272Z,3.23
2018-10-21T23:25:05.219Z,3.10
2018-10-21T23:27:38.264Z,3.47
2018-10-21T23:30:11.131Z,3.10
2018-10-21T23:32:44.465Z,3.30
2018-10-21T23:35:17.262Z,3.50
2018-10-21T23:37:50.035Z,3.07
2018-10-21T23:40:22.620Z,3.67
2018-10-21T23:42:55.667Z,4.10
2018-10-21T23:45:28.604Z,4.57
2018-10-21T23:48:01.460Z,4.80
2018-10-21T23:50:34.244Z,4.10
2018-10-21T23:53:07.449Z,6.27
2018-10-21T23:55:40.386Z,6.77
2018-10-21T23:58:13.363Z,4.63
